sensor_id;sensor_type;location;lat;lon;timestamp;temperature;humidity
41220;DHT22;26951;47.338;9.196;2022-12-18T00:01:18;-3.20;59.60
41220;DHT22;26951;47.338;9.196;2022-12-18T00:04:07;-3.30;59.40
41220;DHT22;26951;47.338;9.196;2022-12-18T00:06:56;-3.30;59.70
41220;DHT22;26951;47.338;9.196;2022-12-18T00:09:40;-3.30;60.00
41220;DHT22;26951;47.338;9.196;2022-12-18T00:12:25;-3.30;60.00
41220;DHT22;26951;47.338;9.196;2022-12-18T00:15:09;-3.30;60.00
41220;DHT22;26951;47.338;9.196;2022-12-18T00:17:53;-3.30;60.30
41220;DHT22;26951;47.338;9.196;2022-12-18T00:20:38;-3.30;60.20
41220;DHT22;26951;47.338;9.196;2022-12-18T00:23:23;-3.30;60.10
41220;DHT22;26951;47.338;9.196;2022-12-18T00:26:19;-3.30;60.20
41220;DHT22;26951;47.338;9.196;2022-12-18T00:29:11;-3.30;60.00
41220;DHT22;26951;47.338;9.196;2022-12-18T00:31:55;-3.40;59.90
41220;DHT22;26951;47.338;9.196;2022-12-18T00:34:39;-3.40;60.30
41220;DHT22;26951;47.338;9.196;2022-12-18T00:37:23;-3.40;60.30
41220;DHT22;26951;47.338;9.196;2022-12-18T00:40:08;-3.40;59.30
41220;DHT22;26951;47.338;9.196;2022-12-18T00:42:53;-3.40;60.30
41220;DHT22;26951;47.338;9.196;2022-12-18T00:45:40;-3.40;60.80
41220;DHT22;26951;47.338;9.196;2022-12-18T00:48:25;-3.40;60.70
41220;DHT22;26951;47.338;9.196;2022-12-18T00:51:09;-3.50;60.70
41220;DHT22;26951;47.338;9.196;2022-12-18T00:53:53;-3.50;60.50
41220;DHT22;26951;47.338;9.196;2022-12-18T00:56:38;-3.50;60.10
41220;DHT22;26951;47.338;9.196;2022-12-18T00:59:23;-3.60;60.40
41220;DHT22;26951;47.338;9.196;2022-12-18T01:02:07;-3.60;60.70
41220;DHT22;26951;47.338;9.196;2022-12-18T01:04:51;-3.60;61.20
41220;DHT22;26951;47.338;9.196;2022-12-18T01:07:35;-3.60;60.90
41220;DHT22;26951;47.338;9.196;2022-12-18T01:10:19;-3.60;60.20
41220;DHT22;26951;47.338;9.196;2022-12-18T01:13:03;-3.60;60.60
41220;DHT22;26951;47.338;9.196;2022-12-18T01:15:48;-3.60;60.60
41220;DHT22;26951;47.338;9.196;2022-12-18T01:18:33;-3.60;60.10
41220;DHT22;26951;47.338;9.196;2022-12-18T01:21:17;-3.70;59.10
41220;DHT22;26951;47.338;9.196;2022-12-18T01:24:01;-3.70;60.30
41220;DHT22;26951;47.338;9.196;2022-12-18T01:26:45;-3.70;59.40
41220;DHT22;26951;47.338;9.196;2022-12-18T01:29:29;-3.80;59.10
41220;DHT22;26951;47.338;9.196;2022-12-18T01:32:14;-3.80;60.20
41220;DHT22;26951;47.338;9.196;2022-12-18T01:34:58;-3.80;60.60
41220;DHT22;26951;47.338;9.196;2022-12-18T01:37:42;-3.80;60.50
41220;DHT22;26951;47.338;9.196;2022-12-18T01:40:26;-3.80;60.10
41220;DHT22;26951;47.338;9.196;2022-12-18T01:43:10;-3.80;59.70
41220;DHT22;26951;47.338;9.196;2022-12-18T01:45:54;-3.80;59.20
41220;DHT22;26951;47.338;9.196;2022-12-18T01:48:39;-3.90;59.40
41220;DHT22;26951;47.338;9.196;2022-12-18T01:51:24;-3.90;59.30
41220;DHT22;26951;47.338;9.196;2022-12-18T01:54:09;-3.90;58.90
41220;DHT22;26951;47.338;9.196;2022-12-18T01:56:53;-4.00;58.40
41220;DHT22;26951;47.338;9.196;2022-12-18T01:59:40;-4.00;58.50
41220;DHT22;26951;47.338;9.196;2022-12-18T02:02:30;-4.10;58.10
41220;DHT22;26951;47.338;9.196;2022-12-18T02:05:22;-4.20;58.00
41220;DHT22;26951;47.338;9.196;2022-12-18T02:08:32;-4.30;57.50
41220;DHT22;26951;47.338;9.196;2022-12-18T02:11:42;-4.30;57.10
41220;DHT22;26951;47.338;9.196;2022-12-18T02:17:42;-4.40;56.40
41220;DHT22;26951;47.338;9.196;2022-12-18T02:20:35;-4.40;56.40
41220;DHT22;26951;47.338;9.196;2022-12-18T02:26:37;-4.50;56.10
41220;DHT22;26951;47.338;9.196;2022-12-18T02:29:25;-4.60;56.20
41220;DHT22;26951;47.338;9.196;2022-12-18T02:32:16;-4.60;56.00
41220;DHT22;26951;47.338;9.196;2022-12-18T02:35:03;-4.70;56.30
41220;DHT22;26951;47.338;9.196;2022-12-18T02:37:48;-4.80;56.70
41220;DHT22;26951;47.338;9.196;2022-12-18T02:40:32;-4.80;57.00
41220;DHT22;26951;47.338;9.196;2022-12-18T02:43:17;-4.80;57.30
41220;DHT22;26951;47.338;9.196;2022-12-18T02:46:31;-4.80;57.40
41220;DHT22;26951;47.338;9.196;2022-12-18T03:01:36;-4.80;57.70
41220;DHT22;26951;47.338;9.196;2022-12-18T03:04:50;-4.80;57.70
41220;DHT22;26951;47.338;9.196;2022-12-18T03:07:55;-4.80;57.80
41220;DHT22;26951;47.338;9.196;2022-12-18T03:10:45;-4.90;57.80
41220;DHT22;26951;47.338;9.196;2022-12-18T03:13:36;-4.90;57.50
41220;DHT22;26951;47.338;9.196;2022-12-18T03:16:27;-4.90;57.80
41220;DHT22;26951;47.338;9.196;2022-12-18T03:19:19;-5.00;58.00
41220;DHT22;26951;47.338;9.196;2022-12-18T03:22:07;-5.00;58.10
41220;DHT22;26951;47.338;9.196;2022-12-18T03:24:54;-5.00;57.90
41220;DHT22;26951;47.338;9.196;2022-12-18T03:27:45;-5.10;57.60
41220;DHT22;26951;47.338;9.196;2022-12-18T03:30:32;-5.10;57.30
41220;DHT22;26951;47.338;9.196;2022-12-18T03:33:31;-5.10;57.10
41220;DHT22;26951;47.338;9.196;2022-12-18T03:36:18;-5.20;56.90
41220;DHT22;26951;47.338;9.196;2022-12-18T03:39:03;-5.30;56.90
41220;DHT22;26951;47.338;9.196;2022-12-18T03:44:44;-5.40;56.50
41220;DHT22;26951;47.338;9.196;2022-12-18T03:50:36;-5.50;55.50
41220;DHT22;26951;47.338;9.196;2022-12-18T03:53:32;-5.60;54.60
41220;DHT22;26951;47.338;9.196;2022-12-18T03:56:17;-5.70;54.00
41220;DHT22;26951;47.338;9.196;2022-12-18T03:59:03;-5.70;53.70
41220;DHT22;26951;47.338;9.196;2022-12-18T04:01:49;-5.80;53.50
41220;DHT22;26951;47.338;9.196;2022-12-18T04:04:38;-5.80;53.20
41220;DHT22;26951;47.338;9.196;2022-12-18T04:07:24;-5.90;53.60
41220;DHT22;26951;47.338;9.196;2022-12-18T04:10:09;-5.90;53.70
41220;DHT22;26951;47.338;9.196;2022-12-18T04:12:57;-6.00;53.10
41220;DHT22;26951;47.338;9.196;2022-12-18T04:15:41;-6.00;52.80
41220;DHT22;26951;47.338;9.196;2022-12-18T04:18:25;-6.10;52.70
41220;DHT22;26951;47.338;9.196;2022-12-18T04:21:10;-6.10;52.90
41220;DHT22;26951;47.338;9.196;2022-12-18T04:23:54;-6.20;53.30
41220;DHT22;26951;47.338;9.196;2022-12-18T04:26:39;-6.20;53.40
41220;DHT22;26951;47.338;9.196;2022-12-18T04:29:23;-6.20;53.80
41220;DHT22;26951;47.338;9.196;2022-12-18T04:32:08;-6.30;54.10
41220;DHT22;26951;47.338;9.196;2022-12-18T04:34:52;-6.30;55.40
41220;DHT22;26951;47.338;9.196;2022-12-18T04:37:37;-6.30;55.10
41220;DHT22;26951;47.338;9.196;2022-12-18T04:40:21;-6.30;55.70
41220;DHT22;26951;47.338;9.196;2022-12-18T04:43:05;-6.30;55.90
41220;DHT22;26951;47.338;9.196;2022-12-18T04:45:49;-6.30;56.10
41220;DHT22;26951;47.338;9.196;2022-12-18T04:48:34;-6.40;56.40
41220;DHT22;26951;47.338;9.196;2022-12-18T04:51:18;-6.40;56.70
41220;DHT22;26951;47.338;9.196;2022-12-18T04:54:02;-6.40;56.70
41220;DHT22;26951;47.338;9.196;2022-12-18T04:56:47;-6.40;56.50
41220;DHT22;26951;47.338;9.196;2022-12-18T04:59:30;-6.40;56.40
41220;DHT22;26951;47.338;9.196;2022-12-18T05:02:14;-6.40;56.50
41220;DHT22;26951;47.338;9.196;2022-12-18T05:04:58;-6.40;56.70
41220;DHT22;26951;47.338;9.196;2022-12-18T05:07:42;-6.40;57.20
41220;DHT22;26951;47.338;9.196;2022-12-18T05:10:26;-6.40;57.70
41220;DHT22;26951;47.338;9.196;2022-12-18T05:13:11;-6.40;57.10
41220;DHT22;26951;47.338;9.196;2022-12-18T05:15:55;-6.40;56.80
41220;DHT22;26951;47.338;9.196;2022-12-18T05:18:40;-6.40;55.90
41220;DHT22;26951;47.338;9.196;2022-12-18T05:21:24;-6.40;55.00
41220;DHT22;26951;47.338;9.196;2022-12-18T05:24:08;-6.50;55.00
41220;DHT22;26951;47.338;9.196;2022-12-18T05:26:52;-6.50;53.90
41220;DHT22;26951;47.338;9.196;2022-12-18T05:29:36;-6.60;53.40
41220;DHT22;26951;47.338;9.196;2022-12-18T05:32:20;-6.70;53.10
41220;DHT22;26951;47.338;9.196;2022-12-18T05:35:05;-6.70;52.80
41220;DHT22;26951;47.338;9.196;2022-12-18T05:37:50;-6.80;52.30
41220;DHT22;26951;47.338;9.196;2022-12-18T05:40:35;-6.90;52.00
41220;DHT22;26951;47.338;9.196;2022-12-18T05:43:20;-7.00;51.20
41220;DHT22;26951;47.338;9.196;2022-12-18T05:46:07;-7.00;51.10
41220;DHT22;26951;47.338;9.196;2022-12-18T05:48:52;-7.10;51.10
41220;DHT22;26951;47.338;9.196;2022-12-18T05:51:36;-7.20;51.50
41220;DHT22;26951;47.338;9.196;2022-12-18T05:54:21;-7.20;52.50
41220;DHT22;26951;47.338;9.196;2022-12-18T05:57:05;-7.20;53.00
41220;DHT22;26951;47.338;9.196;2022-12-18T05:59:50;-7.20;51.80
41220;DHT22;26951;47.338;9.196;2022-12-18T06:02:34;-7.30;50.70
41220;DHT22;26951;47.338;9.196;2022-12-18T06:05:18;-7.30;49.80
41220;DHT22;26951;47.338;9.196;2022-12-18T06:08:02;-7.40;49.70
41220;DHT22;26951;47.338;9.196;2022-12-18T06:10:50;-7.40;50.00
41220;DHT22;26951;47.338;9.196;2022-12-18T06:13:35;-7.50;50.00
41220;DHT22;26951;47.338;9.196;2022-12-18T06:16:19;-7.60;50.20
41220;DHT22;26951;47.338;9.196;2022-12-18T06:19:04;-7.70;50.30
41220;DHT22;26951;47.338;9.196;2022-12-18T06:21:49;-7.70;50.30
41220;DHT22;26951;47.338;9.196;2022-12-18T06:24:33;-7.80;49.70
41220;DHT22;26951;47.338;9.196;2022-12-18T06:27:17;-7.80;49.20
41220;DHT22;26951;47.338;9.196;2022-12-18T06:30:02;-7.90;48.80
41220;DHT22;26951;47.338;9.196;2022-12-18T06:32:48;-7.90;48.70
41220;DHT22;26951;47.338;9.196;2022-12-18T06:35:32;-8.00;49.00
41220;DHT22;26951;47.338;9.196;2022-12-18T06:38:16;-8.00;50.00
41220;DHT22;26951;47.338;9.196;2022-12-18T06:41:02;-8.00;50.70
41220;DHT22;26951;47.338;9.196;2022-12-18T06:43:49;-8.10;51.10
41220;DHT22;26951;47.338;9.196;2022-12-18T06:46:34;-8.10;50.30
41220;DHT22;26951;47.338;9.196;2022-12-18T06:49:18;-8.10;49.40
41220;DHT22;26951;47.338;9.196;2022-12-18T06:52:02;-8.10;49.10
41220;DHT22;26951;47.338;9.196;2022-12-18T06:54:46;-8.20;48.20
41220;DHT22;26951;47.338;9.196;2022-12-18T06:58:01;-8.20;47.20
41220;DHT22;26951;47.338;9.196;2022-12-18T07:00:46;-8.30;47.00
41220;DHT22;26951;47.338;9.196;2022-12-18T07:03:30;-8.40;47.60
41220;DHT22;26951;47.338;9.196;2022-12-18T07:06:16;-8.50;48.60
41220;DHT22;26951;47.338;9.196;2022-12-18T07:09:00;-8.50;49.50
41220;DHT22;26951;47.338;9.196;2022-12-18T07:11:44;-8.50;50.20
41220;DHT22;26951;47.338;9.196;2022-12-18T07:14:28;-8.50;50.20
41220;DHT22;26951;47.338;9.196;2022-12-18T07:17:12;-8.50;50.00
41220;DHT22;26951;47.338;9.196;2022-12-18T07:19:57;-8.50;49.30
41220;DHT22;26951;47.338;9.196;2022-12-18T07:22:41;-8.60;49.20
41220;DHT22;26951;47.338;9.196;2022-12-18T07:25:25;-8.60;49.10
41220;DHT22;26951;47.338;9.196;2022-12-18T07:28:09;-8.60;48.70
41220;DHT22;26951;47.338;9.196;2022-12-18T07:30:53;-8.60;48.50
41220;DHT22;26951;47.338;9.196;2022-12-18T07:33:38;-8.60;49.40
41220;DHT22;26951;47.338;9.196;2022-12-18T07:36:22;-8.60;50.30
41220;DHT22;26951;47.338;9.196;2022-12-18T07:39:06;-8.60;49.40
41220;DHT22;26951;47.338;9.196;2022-12-18T07:41:50;-8.60;49.00
41220;DHT22;26951;47.338;9.196;2022-12-18T07:44:53;-8.70;48.60
41220;DHT22;26951;47.338;9.196;2022-12-18T07:47:37;-8.70;48.60
41220;DHT22;26951;47.338;9.196;2022-12-18T07:50:21;-8.70;49.70
41220;DHT22;26951;47.338;9.196;2022-12-18T07:53:05;-8.60;51.20
41220;DHT22;26951;47.338;9.196;2022-12-18T07:55:58;-8.60;51.80
41220;DHT22;26951;47.338;9.196;2022-12-18T07:58:42;-8.50;51.50
41220;DHT22;26951;47.338;9.196;2022-12-18T08:01:28;-8.50;51.00
41220;DHT22;26951;47.338;9.196;2022-12-18T08:04:12;-8.40;51.40
41220;DHT22;26951;47.338;9.196;2022-12-18T08:06:56;-8.40;52.10
41220;DHT22;26951;47.338;9.196;2022-12-18T08:09:40;-8.40;52.40
41220;DHT22;26951;47.338;9.196;2022-12-18T08:12:24;-8.30;53.00
41220;DHT22;26951;47.338;9.196;2022-12-18T08:15:09;-8.30;53.80
41220;DHT22;26951;47.338;9.196;2022-12-18T08:17:56;-8.20;54.30
41220;DHT22;26951;47.338;9.196;2022-12-18T08:20:40;-8.20;54.50
41220;DHT22;26951;47.338;9.196;2022-12-18T08:23:24;-8.10;53.10
41220;DHT22;26951;47.338;9.196;2022-12-18T08:26:09;-8.10;52.80
41220;DHT22;26951;47.338;9.196;2022-12-18T08:28:59;-8.10;52.30
41220;DHT22;26951;47.338;9.196;2022-12-18T08:31:43;-8.10;51.90
41220;DHT22;26951;47.338;9.196;2022-12-18T08:34:27;-8.10;51.30
41220;DHT22;26951;47.338;9.196;2022-12-18T08:37:11;-8.10;50.50
41220;DHT22;26951;47.338;9.196;2022-12-18T08:39:55;-8.20;50.20
41220;DHT22;26951;47.338;9.196;2022-12-18T08:42:39;-8.20;51.00
41220;DHT22;26951;47.338;9.196;2022-12-18T08:45:42;-8.20;50.10
41220;DHT22;26951;47.338;9.196;2022-12-18T08:48:26;-8.20;49.50
41220;DHT22;26951;47.338;9.196;2022-12-18T08:51:11;-8.20;49.70
41220;DHT22;26951;47.338;9.196;2022-12-18T08:53:55;-8.20;50.80
41220;DHT22;26951;47.338;9.196;2022-12-18T08:56:39;-8.20;51.90
41220;DHT22;26951;47.338;9.196;2022-12-18T08:59:23;-8.20;52.30
41220;DHT22;26951;47.338;9.196;2022-12-18T09:02:10;-8.10;50.80
41220;DHT22;26951;47.338;9.196;2022-12-18T09:04:54;-8.10;50.30
41220;DHT22;26951;47.338;9.196;2022-12-18T09:07:38;-8.20;49.80
41220;DHT22;26951;47.338;9.196;2022-12-18T09:10:22;-8.20;50.10
41220;DHT22;26951;47.338;9.196;2022-12-18T09:13:07;-8.10;50.60
41220;DHT22;26951;47.338;9.196;2022-12-18T09:15:52;-8.10;50.80
41220;DHT22;26951;47.338;9.196;2022-12-18T09:18:37;-8.10;50.60
41220;DHT22;26951;47.338;9.196;2022-12-18T09:21:21;-8.10;50.20
41220;DHT22;26951;47.338;9.196;2022-12-18T09:24:06;-8.10;50.00
41220;DHT22;26951;47.338;9.196;2022-12-18T09:26:53;-8.10;50.30
41220;DHT22;26951;47.338;9.196;2022-12-18T09:29:39;-8.00;50.50
41220;DHT22;26951;47.338;9.196;2022-12-18T09:32:23;-7.90;51.00
41220;DHT22;26951;47.338;9.196;2022-12-18T09:35:07;-7.70;52.00
41220;DHT22;26951;47.338;9.196;2022-12-18T09:37:51;-7.20;52.80
41220;DHT22;26951;47.338;9.196;2022-12-18T09:40:41;-6.80;52.80
41220;DHT22;26951;47.338;9.196;2022-12-18T09:43:39;-6.30;53.10
41220;DHT22;26951;47.338;9.196;2022-12-18T09:46:31;-5.70;53.50
41220;DHT22;26951;47.338;9.196;2022-12-18T09:49:18;-5.10;54.10
41220;DHT22;26951;47.338;9.196;2022-12-18T09:55:36;-3.90;55.30
41220;DHT22;26951;47.338;9.196;2022-12-18T09:58:27;-3.40;54.60
41220;DHT22;26951;47.338;9.196;2022-12-18T10:01:14;-2.90;54.20
41220;DHT22;26951;47.338;9.196;2022-12-18T10:04:00;-2.40;53.30
41220;DHT22;26951;47.338;9.196;2022-12-18T10:06:53;-2.00;52.70
41220;DHT22;26951;47.338;9.196;2022-12-18T10:09:46;-1.50;51.90
41220;DHT22;26951;47.338;9.196;2022-12-18T10:12:41;-1.00;51.00
41220;DHT22;26951;47.338;9.196;2022-12-18T10:18:54;-0.20;48.70
41220;DHT22;26951;47.338;9.196;2022-12-18T10:24:41;0.40;47.20
41220;DHT22;26951;47.338;9.196;2022-12-18T10:27:27;0.70;46.20
41220;DHT22;26951;47.338;9.196;2022-12-18T10:30:14;1.00;47.00
41220;DHT22;26951;47.338;9.196;2022-12-18T10:33:03;1.40;47.00
41220;DHT22;26951;47.338;9.196;2022-12-18T10:35:49;1.60;45.30
41220;DHT22;26951;47.338;9.196;2022-12-18T10:38:34;1.90;44.90
41220;DHT22;26951;47.338;9.196;2022-12-18T10:44:22;2.30;44.10
41220;DHT22;26951;47.338;9.196;2022-12-18T10:47:13;2.60;43.50
41220;DHT22;26951;47.338;9.196;2022-12-18T10:49:58;2.80;42.60
41220;DHT22;26951;47.338;9.196;2022-12-18T10:52:42;3.00;42.80
41220;DHT22;26951;47.338;9.196;2022-12-18T10:55:38;3.20;39.60
41220;DHT22;26951;47.338;9.196;2022-12-18T10:58:31;3.30;37.70
41220;DHT22;26951;47.338;9.196;2022-12-18T11:01:18;3.10;37.20
41220;DHT22;26951;47.338;9.196;2022-12-18T11:04:09;3.00;38.50
41220;DHT22;26951;47.338;9.196;2022-12-18T11:09:40;3.10;41.40
41220;DHT22;26951;47.338;9.196;2022-12-18T11:12:24;3.20;41.30
41220;DHT22;26951;47.338;9.196;2022-12-18T11:15:35;3.30;40.90
41220;DHT22;26951;47.338;9.196;2022-12-18T11:21:10;3.70;39.90
41220;DHT22;26951;47.338;9.196;2022-12-18T11:23:55;3.90;39.20
41220;DHT22;26951;47.338;9.196;2022-12-18T11:26:39;4.10;40.10
41220;DHT22;26951;47.338;9.196;2022-12-18T11:37:59;4.60;39.10
41220;DHT22;26951;47.338;9.196;2022-12-18T11:40:48;4.80;38.60
41220;DHT22;26951;47.338;9.196;2022-12-18T11:46:34;5.10;38.10
41220;DHT22;26951;47.338;9.196;2022-12-18T11:49:26;5.30;38.20
41220;DHT22;26951;47.338;9.196;2022-12-18T11:52:20;5.40;36.40
41220;DHT22;26951;47.338;9.196;2022-12-18T11:55:11;5.40;35.90
41220;DHT22;26951;47.338;9.196;2022-12-18T12:01:21;5.50;36.20
41220;DHT22;26951;47.338;9.196;2022-12-18T12:04:26;5.50;36.90
41220;DHT22;26951;47.338;9.196;2022-12-18T12:07:38;5.50;37.20
41220;DHT22;26951;47.338;9.196;2022-12-18T12:17:14;5.50;35.30
41220;DHT22;26951;47.338;9.196;2022-12-18T12:20:28;5.40;36.90
41220;DHT22;26951;47.338;9.196;2022-12-18T12:23:41;5.40;36.80
41220;DHT22;26951;47.338;9.196;2022-12-18T12:27:03;5.40;37.60
41220;DHT22;26951;47.338;9.196;2022-12-18T12:29:58;5.50;38.00
41220;DHT22;26951;47.338;9.196;2022-12-18T12:38:55;5.60;38.50
41220;DHT22;26951;47.338;9.196;2022-12-18T12:41:42;5.60;38.40
41220;DHT22;26951;47.338;9.196;2022-12-18T12:44:51;5.50;38.60
41220;DHT22;26951;47.338;9.196;2022-12-18T12:47:39;5.50;39.50
41220;DHT22;26951;47.338;9.196;2022-12-18T12:50:25;5.40;38.60
41220;DHT22;26951;47.338;9.196;2022-12-18T12:53:19;5.30;38.70
41220;DHT22;26951;47.338;9.196;2022-12-18T12:56:05;5.20;38.90
41220;DHT22;26951;47.338;9.196;2022-12-18T12:59:06;5.10;38.30
41220;DHT22;26951;47.338;9.196;2022-12-18T13:05:16;4.70;38.30
41220;DHT22;26951;47.338;9.196;2022-12-18T13:08:12;4.20;38.90
41220;DHT22;26951;47.338;9.196;2022-12-18T13:11:32;3.80;40.20
41220;DHT22;26951;47.338;9.196;2022-12-18T13:14:37;3.50;40.50
41220;DHT22;26951;47.338;9.196;2022-12-18T13:20:12;3.00;40.90
41220;DHT22;26951;47.338;9.196;2022-12-18T13:22:57;2.80;41.30
41220;DHT22;26951;47.338;9.196;2022-12-18T13:25:41;2.70;41.80
41220;DHT22;26951;47.338;9.196;2022-12-18T13:34:29;2.50;42.90
41220;DHT22;26951;47.338;9.196;2022-12-18T13:43:30;2.40;42.50
41220;DHT22;26951;47.338;9.196;2022-12-18T13:49:24;2.30;43.00
41220;DHT22;26951;47.338;9.196;2022-12-18T13:52:19;2.20;42.70
41220;DHT22;26951;47.338;9.196;2022-12-18T13:55:11;2.20;43.10
41220;DHT22;26951;47.338;9.196;2022-12-18T13:58:05;2.10;42.60
41220;DHT22;26951;47.338;9.196;2022-12-18T14:00:49;2.10;42.60
41220;DHT22;26951;47.338;9.196;2022-12-18T14:03:34;2.10;42.60
41220;DHT22;26951;47.338;9.196;2022-12-18T14:06:18;2.10;43.30
41220;DHT22;26951;47.338;9.196;2022-12-18T14:09:02;2.00;43.40
41220;DHT22;26951;47.338;9.196;2022-12-18T14:11:48;2.00;43.10
41220;DHT22;26951;47.338;9.196;2022-12-18T14:14:33;1.90;43.70
41220;DHT22;26951;47.338;9.196;2022-12-18T14:17:17;1.90;43.50
41220;DHT22;26951;47.338;9.196;2022-12-18T14:20:02;1.80;43.10
41220;DHT22;26951;47.338;9.196;2022-12-18T14:22:48;1.70;43.20
41220;DHT22;26951;47.338;9.196;2022-12-18T14:25:32;1.60;43.50
41220;DHT22;26951;47.338;9.196;2022-12-18T14:28:16;1.60;43.80
41220;DHT22;26951;47.338;9.196;2022-12-18T14:31:01;1.60;43.90
41220;DHT22;26951;47.338;9.196;2022-12-18T14:33:45;1.60;44.20
41220;DHT22;26951;47.338;9.196;2022-12-18T14:36:29;1.60;44.30
41220;DHT22;26951;47.338;9.196;2022-12-18T14:39:17;1.60;44.50
41220;DHT22;26951;47.338;9.196;2022-12-18T14:42:01;1.70;44.20
41220;DHT22;26951;47.338;9.196;2022-12-18T14:44:45;1.70;44.20
41220;DHT22;26951;47.338;9.196;2022-12-18T14:47:30;1.60;43.60
41220;DHT22;26951;47.338;9.196;2022-12-18T14:50:14;1.60;43.30
41220;DHT22;26951;47.338;9.196;2022-12-18T14:52:58;1.40;43.10
41220;DHT22;26951;47.338;9.196;2022-12-18T14:55:46;1.30;42.80
41220;DHT22;26951;47.338;9.196;2022-12-18T14:58:31;1.10;42.90
41220;DHT22;26951;47.338;9.196;2022-12-18T15:01:32;1.00;43.50
41220;DHT22;26951;47.338;9.196;2022-12-18T15:04:32;0.90;44.20
41220;DHT22;26951;47.338;9.196;2022-12-18T15:07:23;0.80;44.20
41220;DHT22;26951;47.338;9.196;2022-12-18T15:10:11;0.80;44.10
41220;DHT22;26951;47.338;9.196;2022-12-18T15:18:32;0.50;42.70
41220;DHT22;26951;47.338;9.196;2022-12-18T15:21:23;0.30;42.70
41220;DHT22;26951;47.338;9.196;2022-12-18T15:24:26;0.10;42.80
41220;DHT22;26951;47.338;9.196;2022-12-18T15:27:21;-0.10;43.80
41220;DHT22;26951;47.338;9.196;2022-12-18T15:32:55;-0.60;43.30
41220;DHT22;26951;47.338;9.196;2022-12-18T15:35:58;-0.70;43.50
41220;DHT22;26951;47.338;9.196;2022-12-18T15:38:47;-1.00;43.40
41220;DHT22;26951;47.338;9.196;2022-12-18T15:41:35;-1.10;44.70
41220;DHT22;26951;47.338;9.196;2022-12-18T15:44:24;-1.30;44.50
41220;DHT22;26951;47.338;9.196;2022-12-18T15:47:11;-1.50;44.30
41220;DHT22;26951;47.338;9.196;2022-12-18T15:49:56;-1.60;44.90
41220;DHT22;26951;47.338;9.196;2022-12-18T15:52:43;-1.70;47.90
41220;DHT22;26951;47.338;9.196;2022-12-18T15:55:28;-1.80;47.80
41220;DHT22;26951;47.338;9.196;2022-12-18T15:58:31;-1.90;48.70
41220;DHT22;26951;47.338;9.196;2022-12-18T16:01:27;-1.90;50.50
41220;DHT22;26951;47.338;9.196;2022-12-18T16:04:12;-2.00;51.40
41220;DHT22;26951;47.338;9.196;2022-12-18T16:06:57;-2.00;51.50
41220;DHT22;26951;47.338;9.196;2022-12-18T16:09:41;-2.00;52.20
41220;DHT22;26951;47.338;9.196;2022-12-18T16:12:25;-2.00;50.70
41220;DHT22;26951;47.338;9.196;2022-12-18T16:15:12;-2.10;49.40
41220;DHT22;26951;47.338;9.196;2022-12-18T16:17:57;-2.20;50.50
41220;DHT22;26951;47.338;9.196;2022-12-18T16:20:41;-2.20;51.80
41220;DHT22;26951;47.338;9.196;2022-12-18T16:23:25;-2.20;52.60
41220;DHT22;26951;47.338;9.196;2022-12-18T16:26:10;-2.30;52.70
41220;DHT22;26951;47.338;9.196;2022-12-18T16:28:55;-2.30;53.30
41220;DHT22;26951;47.338;9.196;2022-12-18T16:31:39;-2.40;52.40
41220;DHT22;26951;47.338;9.196;2022-12-18T16:34:28;-2.40;51.20
41220;DHT22;26951;47.338;9.196;2022-12-18T16:37:14;-2.50;49.80
41220;DHT22;26951;47.338;9.196;2022-12-18T16:39:58;-2.60;49.30
41220;DHT22;26951;47.338;9.196;2022-12-18T16:42:43;-2.60;49.80
41220;DHT22;26951;47.338;9.196;2022-12-18T16:45:28;-2.70;49.70
41220;DHT22;26951;47.338;9.196;2022-12-18T16:48:17;-2.80;50.20
41220;DHT22;26951;47.338;9.196;2022-12-18T16:51:02;-2.80;51.10
41220;DHT22;26951;47.338;9.196;2022-12-18T16:53:46;-2.90;50.80
41220;DHT22;26951;47.338;9.196;2022-12-18T16:56:31;-2.90;51.50
41220;DHT22;26951;47.338;9.196;2022-12-18T16:59:15;-2.90;52.20
41220;DHT22;26951;47.338;9.196;2022-12-18T17:01:59;-3.00;52.40
41220;DHT22;26951;47.338;9.196;2022-12-18T17:04:44;-3.00;53.00
41220;DHT22;26951;47.338;9.196;2022-12-18T17:07:28;-2.90;53.60
41220;DHT22;26951;47.338;9.196;2022-12-18T17:10:12;-3.00;53.40
41220;DHT22;26951;47.338;9.196;2022-12-18T17:12:57;-3.00;52.80
41220;DHT22;26951;47.338;9.196;2022-12-18T17:15:41;-3.10;53.40
41220;DHT22;26951;47.338;9.196;2022-12-18T17:18:25;-3.10;53.20
41220;DHT22;26951;47.338;9.196;2022-12-18T17:21:11;-3.10;52.80
41220;DHT22;26951;47.338;9.196;2022-12-18T17:23:59;-3.10;52.30
41220;DHT22;26951;47.338;9.196;2022-12-18T17:26:44;-3.10;52.80
41220;DHT22;26951;47.338;9.196;2022-12-18T17:29:28;-3.20;53.30
41220;DHT22;26951;47.338;9.196;2022-12-18T17:32:12;-3.20;53.10
41220;DHT22;26951;47.338;9.196;2022-12-18T17:34:57;-3.20;53.30
41220;DHT22;26951;47.338;9.196;2022-12-18T17:37:41;-3.20;53.30
41220;DHT22;26951;47.338;9.196;2022-12-18T17:40:25;-3.20;54.10
41220;DHT22;26951;47.338;9.196;2022-12-18T17:43:10;-3.20;54.60
41220;DHT22;26951;47.338;9.196;2022-12-18T17:45:54;-3.20;54.80
41220;DHT22;26951;47.338;9.196;2022-12-18T17:48:39;-3.20;56.00
41220;DHT22;26951;47.338;9.196;2022-12-18T17:51:25;-3.20;56.60
41220;DHT22;26951;47.338;9.196;2022-12-18T17:54:09;-3.10;57.30
41220;DHT22;26951;47.338;9.196;2022-12-18T17:56:54;-3.10;57.60
41220;DHT22;26951;47.338;9.196;2022-12-18T17:59:38;-3.10;57.70
41220;DHT22;26951;47.338;9.196;2022-12-18T18:02:22;-3.10;58.00
41220;DHT22;26951;47.338;9.196;2022-12-18T18:05:07;-3.00;58.10
41220;DHT22;26951;47.338;9.196;2022-12-18T18:07:51;-3.00;57.20
41220;DHT22;26951;47.338;9.196;2022-12-18T18:10:36;-3.00;57.00
41220;DHT22;26951;47.338;9.196;2022-12-18T18:13:23;-3.00;57.20
41220;DHT22;26951;47.338;9.196;2022-12-18T18:16:48;-3.00;58.20
41220;DHT22;26951;47.338;9.196;2022-12-18T18:19:32;-3.00;60.20
41220;DHT22;26951;47.338;9.196;2022-12-18T18:22:17;-2.90;60.80
41220;DHT22;26951;47.338;9.196;2022-12-18T18:25:03;-2.80;61.00
41220;DHT22;26951;47.338;9.196;2022-12-18T18:27:47;-2.80;61.40
41220;DHT22;26951;47.338;9.196;2022-12-18T18:30:31;-2.80;62.40
41220;DHT22;26951;47.338;9.196;2022-12-18T18:33:15;-2.70;64.20
41220;DHT22;26951;47.338;9.196;2022-12-18T18:36:01;-2.70;65.00
41220;DHT22;26951;47.338;9.196;2022-12-18T18:38:45;-2.50;65.40
41220;DHT22;26951;47.338;9.196;2022-12-18T18:41:29;-2.50;64.80
41220;DHT22;26951;47.338;9.196;2022-12-18T18:44:15;-2.50;64.80
41220;DHT22;26951;47.338;9.196;2022-12-18T18:46:59;-2.40;64.50
41220;DHT22;26951;47.338;9.196;2022-12-18T18:49:43;-2.40;64.50
41220;DHT22;26951;47.338;9.196;2022-12-18T18:52:27;-2.40;63.90
41220;DHT22;26951;47.338;9.196;2022-12-18T18:55:12;-2.30;63.80
41220;DHT22;26951;47.338;9.196;2022-12-18T18:57:56;-2.30;63.60
41220;DHT22;26951;47.338;9.196;2022-12-18T19:00:40;-2.30;63.70
41220;DHT22;26951;47.338;9.196;2022-12-18T19:03:25;-2.20;64.70
41220;DHT22;26951;47.338;9.196;2022-12-18T19:06:21;-2.20;64.80
41220;DHT22;26951;47.338;9.196;2022-12-18T19:09:09;-2.10;64.80
41220;DHT22;26951;47.338;9.196;2022-12-18T19:11:53;-2.10;65.10
41220;DHT22;26951;47.338;9.196;2022-12-18T19:14:56;-2.10;65.10
41220;DHT22;26951;47.338;9.196;2022-12-18T19:17:40;-2.10;65.60
41220;DHT22;26951;47.338;9.196;2022-12-18T19:20:25;-2.10;66.00
41220;DHT22;26951;47.338;9.196;2022-12-18T19:23:09;-2.00;66.20